Everts MD83 at Laredo on Nov 7th 2020, wing tip strike on landing

Last Update: November 9, 2020 / 18:28:24 GMT/Zulu time

Bookmark this article
Incident Facts

Date of incident
Nov 7, 2020

Classification
Incident

Flight number
5V-262

Aircraft Registration
N965CE

ICAO Type Designator
MD83

Airport ICAO Code
KLRD

An Everts Air Cargo McDonnell Douglas MD-83, registration N965CE performing flight 5V-262 from Fort Worth Alliance,TX to Laredo,TX (USA) with 2 crew, was on approach to Laredo's runway 18R at 16:10L (22:10Z) when the aircraft struck a wing tip onto the runway surface. The crew initiated a go around, positioned for another approach to runway 18R and landed without further incident about 10 minutes later.

The FAA reported: "AIRCRAFT DURING LANDING CAUGHT A GUST OF WIND CAUSING THE WINGTIP TO TOUCH THE RUNWAY, LAREDO, TX." The aircraft received "unknown" damage.

Metars:
KLRD 080056Z 12008KT 10SM CLR 25/14 A2990 RMK AO2 SLP123 T02500144=
KLRD 072356Z 12010KT 10SM CLR 27/14 A2988 RMK AO2 SLP118 T02670139 10300 20256 55005=
KLRD 072256Z 11011KT 10SM CLR 29/11 A2988 RMK AO2 SLP116 T02890106=
KLRD 072156Z 13007KT 10SM CLR 30/09 A2989 RMK AO2 SLP116 T03000094=
KLRD 072056Z 11006KT 10SM CLR 29/11 A2990 RMK AO2 SLP122 T02940106 56035=
KLRD 071956Z 14006KT 10SM CLR 29/13 A2992 RMK AO2 SLP131 T02890133=
KLRD 071856Z 15007KT 10SM CLR 28/14 A2996 RMK AO2 SLP142 T02830144=
KLRD 071756Z 06005KT 10SM SCT037 26/17 A3001 RMK AO2 SLP158 T02610167 10261 20144 58017=
KLRD 071656Z 15005KT 10SM SCT027 24/17 A3004 RMK AO2 SLP169 T02440167=
KLRD 071630Z 21006KT 10SM BKN025 BKN030 24/17 A3005 RMK AO2=
Aircraft Registration Data
Registration mark
N965CE
Country of Registration
United States
Date of Registration
Cqb effnnAA edhie Subscribe to unlock
Manufacturer
MCDONNELL DOUGLAS
Aircraft Model / Type
DC-9-83(MD-83)
Number of Seats
ICAO Aircraft Type
MD83
Year of Manufacture
Serial Number
Aircraft Address / Mode S Code (HEX)
Engine Count
Engine Manufacturer
Engine Model
Engine Type
Pounds of Thrust
Main Owner
Hglgpilpclbjm gkeneffkdbicnkgi lknfAmcbf blAkqjilgpg bipncngjhfgfhcqelmfjidckjj Subscribe to unlock
Incident Facts

Date of incident
Nov 7, 2020

Classification
Incident

Flight number
5V-262

Aircraft Registration
N965CE

ICAO Type Designator
MD83

Airport ICAO Code
KLRD

This article is published under license from Avherald.com. © of text by Avherald.com.
Article source

You can read 2 more free articles without a subscription.

Subscribe now and continue reading without any limits!

Are you a subscriber? Login
Subscribe

Read unlimited articles and receive our daily update briefing. Gain better insights into what is happening in commercial aviation safety.

Send tip

Support AeroInside by sending a small tip amount.

Related articles

Newest articles

Subscribe today

Are you researching aviation incidents? Get access to AeroInside Insights, unlimited read access and receive the daily newsletter.

Pick your plan and subscribe

Partner

Blockaviation logo

A new way to document and demonstrate airworthiness compliance and aircraft value. Find out more.

ELITE Logo

ELITE Simulation Solutions is a leading global provider of Flight Simulation Training Devices, IFR training software as well as flight controls and related services. Find out more.

Blue Altitude Logo

Your regulation partner, specialists in aviation safety and compliance; providing training, auditing, and consultancy services. Find out more.

AeroInside Blog
Popular aircraft
Airbus A320
Boeing 737-800
Boeing 737-800 MAX
Popular airlines
American Airlines
United
Delta
Air Canada
Lufthansa
British Airways